sensor_id;sensor_type;location;lat;lon;timestamp;P1;durP1;ratioP1;P2;durP2;ratioP2
4517;SDS011;2271;49.464;11.070;2024-01-07T00:01:31;15.73;;;7.83;;
4517;SDS011;2271;49.464;11.070;2024-01-07T00:03:57;9.70;;;6.40;;
4517;SDS011;2271;49.464;11.070;2024-01-07T00:06:23;7.73;;;6.73;;
4517;SDS011;2271;49.464;11.070;2024-01-07T00:08:48;13.97;;;7.80;;
4517;SDS011;2271;49.464;11.070;2024-01-07T00:11:14;12.70;;;7.10;;
4517;SDS011;2271;49.464;11.070;2024-01-07T00:13:40;9.17;;;7.00;;
4517;SDS011;2271;49.464;11.070;2024-01-07T00:16:06;10.33;;;6.93;;
4517;SDS011;2271;49.464;11.070;2024-01-07T00:18:32;11.27;;;7.17;;
4517;SDS011;2271;49.464;11.070;2024-01-07T00:20:57;10.23;;;6.73;;
4517;SDS011;2271;49.464;11.070;2024-01-07T00:23:23;7.07;;;6.37;;
4517;SDS011;2271;49.464;11.070;2024-01-07T00:25:49;11.47;;;8.20;;
4517;SDS011;2271;49.464;11.070;2024-01-07T00:28:15;9.37;;;7.30;;
4517;SDS011;2271;49.464;11.070;2024-01-07T00:30:40;12.53;;;7.70;;
4517;SDS011;2271;49.464;11.070;2024-01-07T00:33:06;11.47;;;7.00;;
4517;SDS011;2271;49.464;11.070;2024-01-07T00:35:32;13.03;;;7.97;;
4517;SDS011;2271;49.464;11.070;2024-01-07T00:37:57;9.27;;;7.03;;
4517;SDS011;2271;49.464;11.070;2024-01-07T00:40:23;8.40;;;7.20;;
4517;SDS011;2271;49.464;11.070;2024-01-07T00:42:49;8.03;;;6.73;;
4517;SDS011;2271;49.464;11.070;2024-01-07T00:45:16;10.80;;;7.87;;
4517;SDS011;2271;49.464;11.070;2024-01-07T00:47:42;9.33;;;7.23;;
4517;SDS011;2271;49.464;11.070;2024-01-07T00:50:08;10.97;;;7.37;;
4517;SDS011;2271;49.464;11.070;2024-01-07T00:52:34;9.67;;;7.63;;
4517;SDS011;2271;49.464;11.070;2024-01-07T00:55:01;10.27;;;7.77;;
4517;SDS011;2271;49.464;11.070;2024-01-07T00:57:31;8.20;;;7.10;;
4517;SDS011;2271;49.464;11.070;2024-01-07T00:59:57;12.13;;;6.93;;
4517;SDS011;2271;49.464;11.070;2024-01-07T01:02:23;12.13;;;7.43;;
4517;SDS011;2271;49.464;11.070;2024-01-07T01:04:49;11.07;;;7.83;;
4517;SDS011;2271;49.464;11.070;2024-01-07T01:07:17;9.47;;;6.33;;
4517;SDS011;2271;49.464;11.070;2024-01-07T01:09:43;13.00;;;7.57;;
4517;SDS011;2271;49.464;11.070;2024-01-07T01:12:09;15.00;;;7.97;;
4517;SDS011;2271;49.464;11.070;2024-01-07T01:14:34;14.30;;;8.03;;
4517;SDS011;2271;49.464;11.070;2024-01-07T01:17:00;14.80;;;8.23;;
4517;SDS011;2271;49.464;11.070;2024-01-07T01:19:26;12.37;;;8.53;;
4517;SDS011;2271;49.464;11.070;2024-01-07T01:21:51;15.93;;;10.30;;
4517;SDS011;2271;49.464;11.070;2024-01-07T01:24:17;11.07;;;8.40;;
4517;SDS011;2271;49.464;11.070;2024-01-07T01:26:43;12.63;;;8.17;;
4517;SDS011;2271;49.464;11.070;2024-01-07T01:29:08;10.03;;;8.67;;
4517;SDS011;2271;49.464;11.070;2024-01-07T01:31:34;12.97;;;7.63;;
4517;SDS011;2271;49.464;11.070;2024-01-07T01:34:00;10.90;;;8.00;;
4517;SDS011;2271;49.464;11.070;2024-01-07T01:36:25;11.73;;;8.20;;
4517;SDS011;2271;49.464;11.070;2024-01-07T01:38:51;13.17;;;8.47;;
4517;SDS011;2271;49.464;11.070;2024-01-07T01:41:17;12.10;;;9.13;;
4517;SDS011;2271;49.464;11.070;2024-01-07T01:43:43;13.73;;;8.60;;
4517;SDS011;2271;49.464;11.070;2024-01-07T01:46:08;13.23;;;7.90;;
4517;SDS011;2271;49.464;11.070;2024-01-07T01:48:35;11.83;;;8.27;;
4517;SDS011;2271;49.464;11.070;2024-01-07T01:51:02;10.63;;;7.90;;
4517;SDS011;2271;49.464;11.070;2024-01-07T01:53:28;12.53;;;7.63;;
4517;SDS011;2271;49.464;11.070;2024-01-07T01:55:55;12.50;;;7.70;;
4517;SDS011;2271;49.464;11.070;2024-01-07T01:58:22;10.73;;;7.50;;
4517;SDS011;2271;49.464;11.070;2024-01-07T02:00:49;11.57;;;8.10;;
4517;SDS011;2271;49.464;11.070;2024-01-07T02:03:16;11.13;;;7.33;;
4517;SDS011;2271;49.464;11.070;2024-01-07T02:05:42;11.80;;;7.60;;
4517;SDS011;2271;49.464;11.070;2024-01-07T02:08:08;10.97;;;7.73;;
4517;SDS011;2271;49.464;11.070;2024-01-07T02:10:34;9.47;;;7.43;;
4517;SDS011;2271;49.464;11.070;2024-01-07T02:13:01;11.40;;;8.60;;
4517;SDS011;2271;49.464;11.070;2024-01-07T02:15:29;10.03;;;7.63;;
4517;SDS011;2271;49.464;11.070;2024-01-07T02:17:55;11.23;;;8.53;;
4517;SDS011;2271;49.464;11.070;2024-01-07T02:20:21;11.27;;;8.47;;
4517;SDS011;2271;49.464;11.070;2024-01-07T02:22:46;11.50;;;8.27;;
4517;SDS011;2271;49.464;11.070;2024-01-07T02:25:12;9.83;;;7.43;;
4517;SDS011;2271;49.464;11.070;2024-01-07T02:27:38;10.77;;;8.00;;
4517;SDS011;2271;49.464;11.070;2024-01-07T02:30:03;10.87;;;7.30;;
4517;SDS011;2271;49.464;11.070;2024-01-07T02:32:29;9.93;;;7.43;;
4517;SDS011;2271;49.464;11.070;2024-01-07T02:34:59;13.30;;;8.53;;
4517;SDS011;2271;49.464;11.070;2024-01-07T02:37:25;11.63;;;7.20;;
4517;SDS011;2271;49.464;11.070;2024-01-07T02:39:50;12.27;;;8.30;;
4517;SDS011;2271;49.464;11.070;2024-01-07T02:42:16;14.50;;;7.13;;
4517;SDS011;2271;49.464;11.070;2024-01-07T02:44:41;11.17;;;6.67;;
4517;SDS011;2271;49.464;11.070;2024-01-07T02:47:07;7.53;;;6.17;;
4517;SDS011;2271;49.464;11.070;2024-01-07T02:49:33;9.07;;;6.87;;
4517;SDS011;2271;49.464;11.070;2024-01-07T02:51:58;8.73;;;5.87;;
4517;SDS011;2271;49.464;11.070;2024-01-07T02:54:24;8.13;;;5.80;;
4517;SDS011;2271;49.464;11.070;2024-01-07T02:56:50;8.07;;;6.13;;
4517;SDS011;2271;49.464;11.070;2024-01-07T02:59:15;8.77;;;6.33;;
4517;SDS011;2271;49.464;11.070;2024-01-07T03:01:41;10.73;;;6.97;;
4517;SDS011;2271;49.464;11.070;2024-01-07T03:04:10;11.07;;;7.20;;
4517;SDS011;2271;49.464;11.070;2024-01-07T03:06:37;8.53;;;6.47;;
4517;SDS011;2271;49.464;11.070;2024-01-07T03:09:03;8.97;;;5.93;;
4517;SDS011;2271;49.464;11.070;2024-01-07T03:11:28;11.07;;;6.53;;
4517;SDS011;2271;49.464;11.070;2024-01-07T03:13:54;9.00;;;6.67;;
4517;SDS011;2271;49.464;11.070;2024-01-07T03:16:23;9.80;;;6.10;;
4517;SDS011;2271;49.464;11.070;2024-01-07T03:18:50;9.57;;;6.13;;
4517;SDS011;2271;49.464;11.070;2024-01-07T03:21:20;8.63;;;6.13;;
4517;SDS011;2271;49.464;11.070;2024-01-07T03:23:47;10.20;;;6.53;;
4517;SDS011;2271;49.464;11.070;2024-01-07T03:26:13;9.63;;;6.57;;
4517;SDS011;2271;49.464;11.070;2024-01-07T03:28:40;10.80;;;6.87;;
4517;SDS011;2271;49.464;11.070;2024-01-07T03:31:10;6.30;;;5.30;;
4517;SDS011;2271;49.464;11.070;2024-01-07T03:33:37;9.10;;;6.23;;
4517;SDS011;2271;49.464;11.070;2024-01-07T03:36:11;7.40;;;5.73;;
4517;SDS011;2271;49.464;11.070;2024-01-07T03:38:37;8.60;;;5.80;;
4517;SDS011;2271;49.464;11.070;2024-01-07T03:41:04;7.33;;;5.37;;
4517;SDS011;2271;49.464;11.070;2024-01-07T03:43:30;8.47;;;6.17;;
4517;SDS011;2271;49.464;11.070;2024-01-07T03:45:56;9.00;;;6.10;;
4517;SDS011;2271;49.464;11.070;2024-01-07T03:48:22;9.00;;;6.27;;
4517;SDS011;2271;49.464;11.070;2024-01-07T03:50:47;9.60;;;6.77;;
4517;SDS011;2271;49.464;11.070;2024-01-07T03:53:13;9.03;;;6.20;;
4517;SDS011;2271;49.464;11.070;2024-01-07T03:55:39;8.97;;;6.93;;
4517;SDS011;2271;49.464;11.070;2024-01-07T03:58:05;7.80;;;5.73;;
4517;SDS011;2271;49.464;11.070;2024-01-07T04:00:31;8.30;;;6.00;;
4517;SDS011;2271;49.464;11.070;2024-01-07T04:02:56;9.57;;;6.37;;
4517;SDS011;2271;49.464;11.070;2024-01-07T04:05:22;9.47;;;6.50;;
4517;SDS011;2271;49.464;11.070;2024-01-07T04:07:48;10.03;;;6.37;;
4517;SDS011;2271;49.464;11.070;2024-01-07T04:10:15;10.53;;;7.37;;
4517;SDS011;2271;49.464;11.070;2024-01-07T04:12:41;8.97;;;6.43;;
4517;SDS011;2271;49.464;11.070;2024-01-07T04:15:07;12.20;;;7.13;;
4517;SDS011;2271;49.464;11.070;2024-01-07T04:17:33;9.67;;;6.30;;
4517;SDS011;2271;49.464;11.070;2024-01-07T04:19:59;11.87;;;6.90;;
4517;SDS011;2271;49.464;11.070;2024-01-07T04:22:24;11.30;;;6.97;;
4517;SDS011;2271;49.464;11.070;2024-01-07T04:24:50;9.10;;;7.17;;
4517;SDS011;2271;49.464;11.070;2024-01-07T04:27:15;8.50;;;5.90;;
4517;SDS011;2271;49.464;11.070;2024-01-07T04:29:41;9.83;;;6.80;;
4517;SDS011;2271;49.464;11.070;2024-01-07T04:32:07;9.83;;;6.63;;
4517;SDS011;2271;49.464;11.070;2024-01-07T04:34:32;9.10;;;5.77;;
4517;SDS011;2271;49.464;11.070;2024-01-07T04:36:58;11.63;;;5.93;;
4517;SDS011;2271;49.464;11.070;2024-01-07T04:39:23;11.93;;;6.33;;
4517;SDS011;2271;49.464;11.070;2024-01-07T04:41:49;7.97;;;5.67;;
4517;SDS011;2271;49.464;11.070;2024-01-07T04:44:14;8.10;;;6.27;;
4517;SDS011;2271;49.464;11.070;2024-01-07T04:46:40;9.17;;;6.27;;
4517;SDS011;2271;49.464;11.070;2024-01-07T04:49:06;8.73;;;5.73;;
4517;SDS011;2271;49.464;11.070;2024-01-07T04:51:32;8.67;;;6.20;;
4517;SDS011;2271;49.464;11.070;2024-01-07T04:53:58;8.63;;;5.47;;
4517;SDS011;2271;49.464;11.070;2024-01-07T04:56:24;10.00;;;5.90;;
4517;SDS011;2271;49.464;11.070;2024-01-07T04:58:49;8.87;;;6.63;;
4517;SDS011;2271;49.464;11.070;2024-01-07T05:01:15;9.23;;;6.10;;
4517;SDS011;2271;49.464;11.070;2024-01-07T05:03:40;7.90;;;5.13;;
4517;SDS011;2271;49.464;11.070;2024-01-07T05:06:09;9.33;;;5.87;;
4517;SDS011;2271;49.464;11.070;2024-01-07T05:08:39;8.53;;;5.57;;
4517;SDS011;2271;49.464;11.070;2024-01-07T05:11:05;6.40;;;4.80;;
4517;SDS011;2271;49.464;11.070;2024-01-07T05:13:31;6.20;;;4.03;;
4517;SDS011;2271;49.464;11.070;2024-01-07T05:15:57;7.83;;;4.43;;
4517;SDS011;2271;49.464;11.070;2024-01-07T05:18:23;6.30;;;4.57;;
4517;SDS011;2271;49.464;11.070;2024-01-07T05:20:49;5.70;;;4.40;;
4517;SDS011;2271;49.464;11.070;2024-01-07T05:23:15;7.47;;;4.97;;
4517;SDS011;2271;49.464;11.070;2024-01-07T05:25:42;7.57;;;4.70;;
4517;SDS011;2271;49.464;11.070;2024-01-07T05:28:08;6.17;;;4.37;;
4517;SDS011;2271;49.464;11.070;2024-01-07T05:30:34;6.97;;;4.40;;
4517;SDS011;2271;49.464;11.070;2024-01-07T05:32:59;5.43;;;4.17;;
4517;SDS011;2271;49.464;11.070;2024-01-07T05:35:25;7.00;;;4.77;;
4517;SDS011;2271;49.464;11.070;2024-01-07T05:37:50;6.83;;;4.00;;
4517;SDS011;2271;49.464;11.070;2024-01-07T05:40:16;6.87;;;4.90;;
4517;SDS011;2271;49.464;11.070;2024-01-07T05:42:42;6.13;;;4.77;;
4517;SDS011;2271;49.464;11.070;2024-01-07T05:45:08;5.33;;;4.17;;
4517;SDS011;2271;49.464;11.070;2024-01-07T05:47:34;7.50;;;4.77;;
4517;SDS011;2271;49.464;11.070;2024-01-07T05:49:59;6.60;;;4.63;;
4517;SDS011;2271;49.464;11.070;2024-01-07T05:52:25;9.87;;;5.67;;
4517;SDS011;2271;49.464;11.070;2024-01-07T05:54:50;6.43;;;4.37;;
4517;SDS011;2271;49.464;11.070;2024-01-07T05:57:16;7.57;;;4.47;;
4517;SDS011;2271;49.464;11.070;2024-01-07T05:59:43;5.73;;;4.60;;
4517;SDS011;2271;49.464;11.070;2024-01-07T06:02:09;6.03;;;4.50;;
4517;SDS011;2271;49.464;11.070;2024-01-07T06:04:36;6.70;;;4.57;;
4517;SDS011;2271;49.464;11.070;2024-01-07T06:07:02;8.00;;;5.30;;
4517;SDS011;2271;49.464;11.070;2024-01-07T06:09:28;6.23;;;4.23;;
4517;SDS011;2271;49.464;11.070;2024-01-07T06:11:54;8.00;;;4.80;;
4517;SDS011;2271;49.464;11.070;2024-01-07T06:14:20;7.27;;;5.13;;
4517;SDS011;2271;49.464;11.070;2024-01-07T06:16:47;7.20;;;4.60;;
4517;SDS011;2271;49.464;11.070;2024-01-07T06:19:13;10.13;;;5.20;;
4517;SDS011;2271;49.464;11.070;2024-01-07T06:21:39;8.37;;;5.30;;
4517;SDS011;2271;49.464;11.070;2024-01-07T06:24:07;7.17;;;5.00;;
4517;SDS011;2271;49.464;11.070;2024-01-07T06:26:33;8.90;;;5.70;;
4517;SDS011;2271;49.464;11.070;2024-01-07T06:28:59;7.90;;;5.50;;
4517;SDS011;2271;49.464;11.070;2024-01-07T06:31:25;7.53;;;5.30;;
4517;SDS011;2271;49.464;11.070;2024-01-07T06:33:51;9.07;;;5.97;;
4517;SDS011;2271;49.464;11.070;2024-01-07T06:36:16;8.77;;;5.93;;
4517;SDS011;2271;49.464;11.070;2024-01-07T06:38:42;10.27;;;5.97;;
4517;SDS011;2271;49.464;11.070;2024-01-07T06:41:09;9.43;;;6.17;;
4517;SDS011;2271;49.464;11.070;2024-01-07T06:43:35;8.70;;;5.97;;
4517;SDS011;2271;49.464;11.070;2024-01-07T06:46:01;8.93;;;6.07;;
4517;SDS011;2271;49.464;11.070;2024-01-07T06:48:27;9.77;;;5.93;;
4517;SDS011;2271;49.464;11.070;2024-01-07T06:50:52;11.70;;;7.50;;
4517;SDS011;2271;49.464;11.070;2024-01-07T06:53:18;13.07;;;7.33;;
4517;SDS011;2271;49.464;11.070;2024-01-07T06:55:43;9.13;;;6.63;;
4517;SDS011;2271;49.464;11.070;2024-01-07T06:58:09;12.90;;;7.73;;
4517;SDS011;2271;49.464;11.070;2024-01-07T07:00:35;9.30;;;6.30;;
4517;SDS011;2271;49.464;11.070;2024-01-07T07:03:00;10.20;;;6.53;;
4517;SDS011;2271;49.464;11.070;2024-01-07T07:05:26;14.33;;;7.37;;
4517;SDS011;2271;49.464;11.070;2024-01-07T07:07:51;8.97;;;6.90;;
4517;SDS011;2271;49.464;11.070;2024-01-07T07:10:17;10.27;;;7.37;;
4517;SDS011;2271;49.464;11.070;2024-01-07T07:12:43;10.77;;;7.27;;
4517;SDS011;2271;49.464;11.070;2024-01-07T07:15:09;11.30;;;6.63;;
4517;SDS011;2271;49.464;11.070;2024-01-07T07:17:38;10.10;;;6.90;;
4517;SDS011;2271;49.464;11.070;2024-01-07T07:20:03;10.10;;;7.43;;
4517;SDS011;2271;49.464;11.070;2024-01-07T07:22:30;10.50;;;7.00;;
4517;SDS011;2271;49.464;11.070;2024-01-07T07:24:56;12.53;;;8.13;;
4517;SDS011;2271;49.464;11.070;2024-01-07T07:27:21;12.23;;;8.40;;
4517;SDS011;2271;49.464;11.070;2024-01-07T07:29:47;9.87;;;7.27;;
4517;SDS011;2271;49.464;11.070;2024-01-07T07:32:12;14.30;;;8.53;;
4517;SDS011;2271;49.464;11.070;2024-01-07T07:34:39;10.37;;;7.30;;
4517;SDS011;2271;49.464;11.070;2024-01-07T07:37:05;12.13;;;7.80;;
4517;SDS011;2271;49.464;11.070;2024-01-07T07:39:30;13.80;;;8.00;;
4517;SDS011;2271;49.464;11.070;2024-01-07T07:41:56;10.83;;;8.43;;
4517;SDS011;2271;49.464;11.070;2024-01-07T07:44:21;11.77;;;7.93;;
4517;SDS011;2271;49.464;11.070;2024-01-07T07:46:47;12.47;;;8.80;;
4517;SDS011;2271;49.464;11.070;2024-01-07T07:49:13;9.97;;;7.33;;
4517;SDS011;2271;49.464;11.070;2024-01-07T07:51:39;12.93;;;8.67;;
4517;SDS011;2271;49.464;11.070;2024-01-07T07:54:04;12.33;;;8.60;;
4517;SDS011;2271;49.464;11.070;2024-01-07T07:56:30;12.93;;;8.90;;
4517;SDS011;2271;49.464;11.070;2024-01-07T07:58:56;10.23;;;8.50;;
4517;SDS011;2271;49.464;11.070;2024-01-07T08:01:21;13.37;;;8.37;;
4517;SDS011;2271;49.464;11.070;2024-01-07T08:03:47;11.70;;;7.90;;
4517;SDS011;2271;49.464;11.070;2024-01-07T08:06:12;12.27;;;8.73;;
4517;SDS011;2271;49.464;11.070;2024-01-07T08:08:38;13.40;;;8.90;;
4517;SDS011;2271;49.464;11.070;2024-01-07T08:11:04;12.37;;;7.93;;
4517;SDS011;2271;49.464;11.070;2024-01-07T08:13:34;13.50;;;8.27;;
4517;SDS011;2271;49.464;11.070;2024-01-07T08:16:00;13.33;;;7.83;;
4517;SDS011;2271;49.464;11.070;2024-01-07T08:18:26;11.50;;;7.73;;
4517;SDS011;2271;49.464;11.070;2024-01-07T08:20:51;10.97;;;7.67;;
4517;SDS011;2271;49.464;11.070;2024-01-07T08:23:17;10.10;;;7.70;;
4517;SDS011;2271;49.464;11.070;2024-01-07T08:25:42;12.67;;;7.77;;
4517;SDS011;2271;49.464;11.070;2024-01-07T08:28:10;10.33;;;7.03;;
4517;SDS011;2271;49.464;11.070;2024-01-07T08:30:35;11.43;;;7.20;;
4517;SDS011;2271;49.464;11.070;2024-01-07T08:33:01;13.40;;;8.53;;
4517;SDS011;2271;49.464;11.070;2024-01-07T08:35:26;20.27;;;8.37;;
4517;SDS011;2271;49.464;11.070;2024-01-07T08:37:52;12.83;;;8.50;;
4517;SDS011;2271;49.464;11.070;2024-01-07T08:40:17;11.07;;;7.83;;
4517;SDS011;2271;49.464;11.070;2024-01-07T08:42:44;15.23;;;8.60;;
4517;SDS011;2271;49.464;11.070;2024-01-07T08:45:10;11.87;;;7.90;;
4517;SDS011;2271;49.464;11.070;2024-01-07T08:47:36;14.47;;;8.37;;
4517;SDS011;2271;49.464;11.070;2024-01-07T08:50:02;12.47;;;7.83;;
4517;SDS011;2271;49.464;11.070;2024-01-07T08:52:28;11.50;;;8.03;;
4517;SDS011;2271;49.464;11.070;2024-01-07T08:54:54;9.60;;;6.37;;
4517;SDS011;2271;49.464;11.070;2024-01-07T08:57:20;11.63;;;7.73;;
4517;SDS011;2271;49.464;11.070;2024-01-07T08:59:45;15.03;;;8.23;;
4517;SDS011;2271;49.464;11.070;2024-01-07T09:02:11;13.30;;;8.70;;
4517;SDS011;2271;49.464;11.070;2024-01-07T09:04:37;13.63;;;9.07;;
4517;SDS011;2271;49.464;11.070;2024-01-07T09:07:03;13.43;;;8.13;;
4517;SDS011;2271;49.464;11.070;2024-01-07T09:09:28;11.80;;;8.17;;
4517;SDS011;2271;49.464;11.070;2024-01-07T09:11:54;12.63;;;8.07;;
4517;SDS011;2271;49.464;11.070;2024-01-07T09:14:22;14.13;;;8.60;;
4517;SDS011;2271;49.464;11.070;2024-01-07T09:16:47;11.67;;;7.50;;
4517;SDS011;2271;49.464;11.070;2024-01-07T09:19:13;14.83;;;9.23;;
4517;SDS011;2271;49.464;11.070;2024-01-07T09:21:39;13.63;;;9.30;;
4517;SDS011;2271;49.464;11.070;2024-01-07T09:24:04;12.93;;;7.33;;
4517;SDS011;2271;49.464;11.070;2024-01-07T09:26:30;12.93;;;9.17;;
4517;SDS011;2271;49.464;11.070;2024-01-07T09:28:56;12.40;;;8.03;;
4517;SDS011;2271;49.464;11.070;2024-01-07T09:31:22;14.13;;;9.20;;
4517;SDS011;2271;49.464;11.070;2024-01-07T09:33:47;15.30;;;9.33;;
4517;SDS011;2271;49.464;11.070;2024-01-07T09:36:13;13.67;;;10.00;;
4517;SDS011;2271;49.464;11.070;2024-01-07T09:38:41;15.43;;;9.17;;
4517;SDS011;2271;49.464;11.070;2024-01-07T09:41:07;14.60;;;9.37;;
4517;SDS011;2271;49.464;11.070;2024-01-07T09:43:32;15.63;;;8.77;;
4517;SDS011;2271;49.464;11.070;2024-01-07T09:45:58;16.47;;;10.10;;
4517;SDS011;2271;49.464;11.070;2024-01-07T09:48:25;15.03;;;10.07;;
4517;SDS011;2271;49.464;11.070;2024-01-07T09:50:51;11.00;;;8.30;;
4517;SDS011;2271;49.464;11.070;2024-01-07T09:53:17;12.73;;;8.50;;
4517;SDS011;2271;49.464;11.070;2024-01-07T09:58:38;10.83;;;7.43;;
4517;SDS011;2271;49.464;11.070;2024-01-07T10:01:07;14.33;;;9.93;;
4517;SDS011;2271;49.464;11.070;2024-01-07T10:03:33;12.33;;;8.47;;
4517;SDS011;2271;49.464;11.070;2024-01-07T10:05:58;13.17;;;8.17;;
4517;SDS011;2271;49.464;11.070;2024-01-07T10:08:24;18.77;;;8.63;;
4517;SDS011;2271;49.464;11.070;2024-01-07T10:10:50;15.83;;;9.17;;
4517;SDS011;2271;49.464;11.070;2024-01-07T10:13:15;12.97;;;8.30;;
4517;SDS011;2271;49.464;11.070;2024-01-07T10:15:41;14.23;;;8.80;;
4517;SDS011;2271;49.464;11.070;2024-01-07T10:18:07;14.57;;;9.30;;
4517;SDS011;2271;49.464;11.070;2024-01-07T10:20:33;17.27;;;10.03;;
4517;SDS011;2271;49.464;11.070;2024-01-07T10:22:59;14.13;;;8.83;;
4517;SDS011;2271;49.464;11.070;2024-01-07T10:25:26;19.70;;;10.93;;
4517;SDS011;2271;49.464;11.070;2024-01-07T10:27:52;15.40;;;10.03;;
4517;SDS011;2271;49.464;11.070;2024-01-07T10:30:18;19.87;;;10.47;;
4517;SDS011;2271;49.464;11.070;2024-01-07T10:32:44;16.13;;;9.80;;
4517;SDS011;2271;49.464;11.070;2024-01-07T10:35:13;18.13;;;10.27;;
4517;SDS011;2271;49.464;11.070;2024-01-07T10:37:43;16.13;;;9.90;;
4517;SDS011;2271;49.464;11.070;2024-01-07T10:40:11;14.57;;;9.70;;
4517;SDS011;2271;49.464;11.070;2024-01-07T10:42:36;14.03;;;8.90;;
4517;SDS011;2271;49.464;11.070;2024-01-07T10:45:04;13.93;;;8.87;;
4517;SDS011;2271;49.464;11.070;2024-01-07T10:47:31;12.93;;;8.73;;
4517;SDS011;2271;49.464;11.070;2024-01-07T10:49:59;14.90;;;9.33;;
4517;SDS011;2271;49.464;11.070;2024-01-07T10:52:27;15.53;;;8.97;;
4517;SDS011;2271;49.464;11.070;2024-01-07T10:54:56;13.27;;;9.17;;
4517;SDS011;2271;49.464;11.070;2024-01-07T10:57:36;15.33;;;8.97;;
4517;SDS011;2271;49.464;11.070;2024-01-07T11:00:06;15.63;;;9.67;;
4517;SDS011;2271;49.464;11.070;2024-01-07T11:02:39;15.07;;;9.60;;
4517;SDS011;2271;49.464;11.070;2024-01-07T11:05:17;14.17;;;10.00;;
4517;SDS011;2271;49.464;11.070;2024-01-07T11:10:58;15.60;;;9.40;;
4517;SDS011;2271;49.464;11.070;2024-01-07T11:13:33;13.63;;;8.97;;
4517;SDS011;2271;49.464;11.070;2024-01-07T11:16:12;12.97;;;8.53;;
4517;SDS011;2271;49.464;11.070;2024-01-07T11:18:38;12.33;;;7.93;;
4517;SDS011;2271;49.464;11.070;2024-01-07T11:21:10;11.93;;;8.30;;
4517;SDS011;2271;49.464;11.070;2024-01-07T11:23:45;16.97;;;9.40;;
4517;SDS011;2271;49.464;11.070;2024-01-07T11:26:11;16.43;;;9.70;;
4517;SDS011;2271;49.464;11.070;2024-01-07T11:31:09;14.07;;;9.00;;
4517;SDS011;2271;49.464;11.070;2024-01-07T11:33:38;15.47;;;9.63;;
4517;SDS011;2271;49.464;11.070;2024-01-07T11:36:04;17.87;;;8.70;;
4517;SDS011;2271;49.464;11.070;2024-01-07T11:38:30;14.37;;;9.13;;
4517;SDS011;2271;49.464;11.070;2024-01-07T11:40:56;13.60;;;8.57;;
4517;SDS011;2271;49.464;11.070;2024-01-07T11:43:23;14.23;;;8.37;;
4517;SDS011;2271;49.464;11.070;2024-01-07T11:45:49;11.70;;;7.50;;
4517;SDS011;2271;49.464;11.070;2024-01-07T11:48:16;11.70;;;8.23;;
4517;SDS011;2271;49.464;11.070;2024-01-07T11:50:42;12.00;;;7.00;;
4517;SDS011;2271;49.464;11.070;2024-01-07T11:53:12;12.13;;;8.67;;
4517;SDS011;2271;49.464;11.070;2024-01-07T11:55:38;16.73;;;7.73;;
4517;SDS011;2271;49.464;11.070;2024-01-07T11:58:04;11.53;;;7.87;;
4517;SDS011;2271;49.464;11.070;2024-01-07T12:00:33;9.83;;;7.40;;
4517;SDS011;2271;49.464;11.070;2024-01-07T12:03:02;11.03;;;7.13;;
4517;SDS011;2271;49.464;11.070;2024-01-07T12:05:29;11.50;;;7.40;;
4517;SDS011;2271;49.464;11.070;2024-01-07T12:07:55;10.37;;;6.97;;
4517;SDS011;2271;49.464;11.070;2024-01-07T12:10:22;11.27;;;6.77;;
4517;SDS011;2271;49.464;11.070;2024-01-07T12:12:49;13.07;;;7.93;;
4517;SDS011;2271;49.464;11.070;2024-01-07T12:15:16;10.00;;;7.07;;
4517;SDS011;2271;49.464;11.070;2024-01-07T12:17:42;11.57;;;7.53;;
4517;SDS011;2271;49.464;11.070;2024-01-07T12:20:14;13.50;;;8.10;;
4517;SDS011;2271;49.464;11.070;2024-01-07T12:22:40;9.23;;;5.90;;
4517;SDS011;2271;49.464;11.070;2024-01-07T12:25:06;10.40;;;7.10;;
4517;SDS011;2271;49.464;11.070;2024-01-07T12:27:33;9.33;;;6.37;;
4517;SDS011;2271;49.464;11.070;2024-01-07T12:30:00;13.77;;;7.33;;
4517;SDS011;2271;49.464;11.070;2024-01-07T12:32:26;10.70;;;6.63;;
4517;SDS011;2271;49.464;11.070;2024-01-07T12:34:52;10.93;;;7.17;;
4517;SDS011;2271;49.464;11.070;2024-01-07T12:37:18;11.50;;;6.70;;
4517;SDS011;2271;49.464;11.070;2024-01-07T12:39:44;11.90;;;7.67;;
4517;SDS011;2271;49.464;11.070;2024-01-07T12:42:10;10.97;;;6.93;;
4517;SDS011;2271;49.464;11.070;2024-01-07T12:44:39;7.97;;;5.70;;
4517;SDS011;2271;49.464;11.070;2024-01-07T12:47:04;12.60;;;6.13;;
4517;SDS011;2271;49.464;11.070;2024-01-07T12:49:30;10.57;;;6.83;;
4517;SDS011;2271;49.464;11.070;2024-01-07T12:51:56;8.60;;;5.73;;
4517;SDS011;2271;49.464;11.070;2024-01-07T12:54:22;9.97;;;6.00;;
4517;SDS011;2271;49.464;11.070;2024-01-07T12:56:49;9.53;;;6.37;;
4517;SDS011;2271;49.464;11.070;2024-01-07T12:59:15;10.60;;;6.80;;
4517;SDS011;2271;49.464;11.070;2024-01-07T13:01:40;12.60;;;8.73;;
4517;SDS011;2271;49.464;11.070;2024-01-07T13:04:06;11.33;;;6.60;;
4517;SDS011;2271;49.464;11.070;2024-01-07T13:06:34;12.90;;;7.50;;
4517;SDS011;2271;49.464;11.070;2024-01-07T13:09:00;10.83;;;6.97;;
4517;SDS011;2271;49.464;11.070;2024-01-07T13:11:28;13.60;;;6.80;;
4517;SDS011;2271;49.464;11.070;2024-01-07T13:13:55;11.40;;;7.40;;
4517;SDS011;2271;49.464;11.070;2024-01-07T13:16:25;10.37;;;6.60;;
4517;SDS011;2271;49.464;11.070;2024-01-07T13:18:50;12.97;;;7.43;;
4517;SDS011;2271;49.464;11.070;2024-01-07T13:21:16;11.17;;;6.67;;
4517;SDS011;2271;49.464;11.070;2024-01-07T13:23:43;11.03;;;6.77;;
4517;SDS011;2271;49.464;11.070;2024-01-07T13:26:09;8.50;;;6.47;;
4517;SDS011;2271;49.464;11.070;2024-01-07T13:28:38;9.87;;;7.00;;
4517;SDS011;2271;49.464;11.070;2024-01-07T13:31:03;11.83;;;8.77;;
4517;SDS011;2271;49.464;11.070;2024-01-07T13:33:29;10.80;;;7.70;;
4517;SDS011;2271;49.464;11.070;2024-01-07T13:35:55;12.23;;;6.70;;
4517;SDS011;2271;49.464;11.070;2024-01-07T13:38:20;7.77;;;6.27;;
4517;SDS011;2271;49.464;11.070;2024-01-07T13:40:46;8.30;;;6.13;;
4517;SDS011;2271;49.464;11.070;2024-01-07T13:43:12;8.17;;;5.63;;
4517;SDS011;2271;49.464;11.070;2024-01-07T13:45:38;9.47;;;6.77;;
4517;SDS011;2271;49.464;11.070;2024-01-07T13:48:04;8.00;;;5.37;;
4517;SDS011;2271;49.464;11.070;2024-01-07T13:50:32;7.33;;;5.60;;
4517;SDS011;2271;49.464;11.070;2024-01-07T13:52:58;7.07;;;5.47;;
4517;SDS011;2271;49.464;11.070;2024-01-07T13:55:23;10.80;;;6.30;;
4517;SDS011;2271;49.464;11.070;2024-01-07T13:57:49;11.87;;;6.90;;
4517;SDS011;2271;49.464;11.070;2024-01-07T14:00:14;7.77;;;5.40;;
4517;SDS011;2271;49.464;11.070;2024-01-07T14:02:43;11.47;;;6.10;;
4517;SDS011;2271;49.464;11.070;2024-01-07T14:05:11;9.70;;;6.20;;
4517;SDS011;2271;49.464;11.070;2024-01-07T14:07:37;10.13;;;4.93;;
4517;SDS011;2271;49.464;11.070;2024-01-07T14:10:06;10.10;;;5.67;;
4517;SDS011;2271;49.464;11.070;2024-01-07T14:12:33;8.30;;;5.23;;
4517;SDS011;2271;49.464;11.070;2024-01-07T14:14:59;7.20;;;5.13;;
4517;SDS011;2271;49.464;11.070;2024-01-07T14:17:25;7.10;;;3.93;;
4517;SDS011;2271;49.464;11.070;2024-01-07T14:19:51;7.67;;;4.43;;
4517;SDS011;2271;49.464;11.070;2024-01-07T14:22:18;5.87;;;3.20;;
4517;SDS011;2271;49.464;11.070;2024-01-07T14:24:48;6.10;;;4.60;;
4517;SDS011;2271;49.464;11.070;2024-01-07T14:27:14;5.07;;;4.10;;
4517;SDS011;2271;49.464;11.070;2024-01-07T14:29:40;9.37;;;4.77;;
4517;SDS011;2271;49.464;11.070;2024-01-07T14:32:07;10.20;;;4.90;;
4517;SDS011;2271;49.464;11.070;2024-01-07T14:34:32;6.37;;;4.60;;
4517;SDS011;2271;49.464;11.070;2024-01-07T14:36:58;6.77;;;4.10;;
4517;SDS011;2271;49.464;11.070;2024-01-07T14:39:25;6.33;;;4.40;;
4517;SDS011;2271;49.464;11.070;2024-01-07T14:41:51;5.83;;;4.20;;
4517;SDS011;2271;49.464;11.070;2024-01-07T14:44:16;7.10;;;3.60;;
4517;SDS011;2271;49.464;11.070;2024-01-07T14:46:43;5.13;;;4.30;;
4517;SDS011;2271;49.464;11.070;2024-01-07T14:49:09;4.03;;;3.53;;
4517;SDS011;2271;49.464;11.070;2024-01-07T14:51:34;6.53;;;4.00;;
4517;SDS011;2271;49.464;11.070;2024-01-07T14:54:01;11.10;;;4.70;;
4517;SDS011;2271;49.464;11.070;2024-01-07T14:56:27;6.37;;;4.20;;